Terminal Aerodrome Forecast
Issued by NWS

Home | Current Version | Previous Version | Text Only | Print | Product List | Glossary On
Versions: 1 2 3 4 5 6 7 8 9 10 11 12 13 14 15 16 17 18 19 20 21
000
FTUS43 KAPX 292136 AAB
TAFTVC
TAF AMD
KTVC 292136Z 2922/3018 34017G31KT P6SM OVC025
     FM300000 31015G26KT 2SM -SHSN OVC022
     FM300200 32016G31KT 3/4SM -SHSN BLSN OVC012
     FM301000 32009G19KT 3SM -SHSN OVC015=

USA.gov is the U.S. government's official web portal to all federal, state and local government web resources and services.